TimeEST,TemperatureF,Dew PointF,Humidity,Sea Level PressureIn,VisibilityMPH,Wind Direction,Wind SpeedMPH,Gust SpeedMPH,PrecipitationIn,Events,Conditions,WindDirDegrees,DateUTC
12:54 AM,9.0,5.0,84,30.35,-9999.0,North,-9999.0,-,N/A,,Unknown,0,2012-12-26 05:54:00
1:54 AM,8.1,3.9,83,30.37,-9999.0,North,-9999.0,-,N/A,,Unknown,0,2012-12-26 06:54:00
2:54 AM,6.1,3.0,87,30.39,-9999.0,North,-9999.0,-,N/A,,Unknown,0,2012-12-26 07:54:00
3:54 AM,5.0,1.9,87,30.42,-9999.0,North,-9999.0,-,N/A,,Unknown,0,2012-12-26 08:54:00
4:54 AM,5.0,1.0,84,30.41,-9999.0,North,-9999.0,-,N/A,,Unknown,0,2012-12-26 09:54:00
5:54 AM,3.9,-0.0,84,30.40,-9999.0,North,-9999.0,-,N/A,,Unknown,0,2012-12-26 10:54:00
6:54 AM,3.9,-0.0,84,30.38,-9999.0,North,-9999.0,-,N/A,,Unknown,0,2012-12-26 11:54:00
7:54 AM,3.0,-0.9,84,30.42,-9999.0,North,-9999.0,-,N/A,,Unknown,0,2012-12-26 12:54:00
8:54 AM,6.1,1.9,83,30.41,-9999.0,North,-9999.0,-,N/A,,Unknown,0,2012-12-26 13:54:00
9:54 AM,10.0,3.9,76,30.40,-9999.0,North,-9999.0,-,N/A,,Unknown,0,2012-12-26 14:54:00
10:54 AM,14.0,7.0,74,30.38,-9999.0,North,-9999.0,-,N/A,,Unknown,0,2012-12-26 15:54:00
11:54 AM,19.9,10.0,65,30.32,-9999.0,North,-9999.0,-,N/A,,Unknown,0,2012-12-26 16:54:00
12:54 PM,21.9,10.0,60,30.30,-9999.0,North,-9999.0,-,N/A,,Unknown,0,2012-12-26 17:54:00
1:54 PM,24.1,10.9,57,30.28,-9999.0,North,-9999.0,-,N/A,,Unknown,0,2012-12-26 18:54:00
2:54 PM,23.0,10.9,60,30.29,-9999.0,North,-9999.0,-,N/A,,Unknown,0,2012-12-26 19:54:00
3:54 PM,24.1,12.0,60,30.26,-9999.0,North,-9999.0,-,N/A,,Unknown,0,2012-12-26 20:54:00
4:54 PM,21.0,14.0,74,30.26,-9999.0,North,-9999.0,-,N/A,,Unknown,0,2012-12-26 21:54:00
5:54 PM,21.0,14.0,74,30.24,-9999.0,North,-9999.0,-,N/A,,Unknown,0,2012-12-26 22:54:00
6:54 PM,21.0,14.0,74,30.23,-9999.0,North,-9999.0,-,N/A,,Unknown,0,2012-12-26 23:54:00
7:54 PM,21.0,14.0,74,30.19,-9999.0,North,-9999.0,-,N/A,,Unknown,0,2012-12-27 00:54:00
8:54 PM,21.0,15.1,78,30.17,-9999.0,North,-9999.0,-,N/A,,Unknown,0,2012-12-27 01:54:00
9:54 PM,21.0,14.0,74,30.13,-9999.0,North,-9999.0,-,N/A,,Unknown,0,2012-12-27 02:54:00
10:54 PM,21.0,15.1,78,30.08,-9999.0,North,-9999.0,-,N/A,,Unknown,0,2012-12-27 03:54:00
11:54 PM,21.0,15.1,78,30.04,-9999.0,North,-9999.0,-,N/A,,Unknown,0,2012-12-27 04:54:00